createdAt,value
2023-06-04T00:01:50.529Z,8.76
2023-06-04T00:04:18.403Z,8.69
2023-06-04T00:06:46.195Z,8.63
2023-06-04T00:09:13.924Z,8.60
2023-06-04T00:11:41.775Z,8.56
2023-06-04T00:14:09.485Z,8.53
2023-06-04T00:16:37.824Z,8.48
2023-06-04T00:19:05.828Z,8.44
2023-06-04T00:21:33.523Z,8.37
2023-06-04T00:24:02.277Z,8.32
2023-06-04T00:26:30.115Z,8.29
2023-06-04T00:28:58.086Z,8.24
2023-06-04T00:31:25.923Z,8.18
2023-06-04T00:33:53.647Z,8.11
2023-06-04T00:36:21.361Z,8.10
2023-06-04T00:38:49.162Z,8.07
2023-06-04T00:41:17.663Z,8.04
2023-06-04T00:43:56.562Z,8.01
2023-06-04T00:46:27.969Z,8.00
2023-06-04T00:48:56.372Z,7.99
2023-06-04T00:51:24.790Z,7.97
2023-06-04T00:53:53.802Z,7.97
2023-06-04T00:56:21.698Z,7.97
2023-06-04T00:58:49.548Z,7.90
2023-06-04T01:01:46.392Z,7.83
2023-06-04T01:04:25.132Z,7.80
2023-06-04T01:06:57.363Z,7.82
2023-06-04T01:09:28.871Z,7.83
2023-06-04T01:11:59.623Z,7.78
2023-06-04T01:14:27.561Z,7.77
2023-06-04T01:17:04.796Z,7.74
2023-06-04T01:19:33.332Z,7.73
2023-06-04T01:22:05.342Z,7.71
2023-06-04T01:24:39.653Z,7.67
2023-06-04T01:27:08.762Z,7.65
2023-06-04T01:29:37.358Z,7.62
2023-06-04T01:32:06.133Z,7.58
2023-06-04T01:34:45.090Z,7.57
2023-06-04T01:37:13.574Z,7.55
2023-06-04T01:39:43.783Z,7.52
2023-06-04T01:42:11.747Z,7.50
2023-06-04T01:44:39.565Z,7.48
2023-06-04T01:47:07.292Z,7.45
2023-06-04T01:49:35.153Z,7.42
2023-06-04T01:52:02.928Z,7.38
2023-06-04T01:54:31.418Z,7.37
2023-06-04T01:56:59.128Z,7.36
2023-06-04T01:59:28.178Z,7.36
2023-06-04T02:01:55.889Z,7.37
2023-06-04T02:04:24.169Z,7.37
2023-06-04T02:06:51.880Z,7.34
2023-06-04T02:09:19.722Z,7.34
2023-06-04T02:11:47.654Z,7.32
2023-06-04T02:14:15.445Z,7.29
2023-06-04T02:16:43.301Z,7.28
2023-06-04T02:19:14.133Z,7.27
2023-06-04T02:21:41.882Z,7.29
2023-06-04T02:24:09.717Z,7.31
2023-06-04T02:26:37.555Z,7.30
2023-06-04T02:29:05.693Z,7.28
2023-06-04T02:31:33.503Z,7.28
2023-06-04T02:34:01.268Z,7.29
2023-06-04T02:36:31.303Z,7.31
2023-06-04T02:38:59.161Z,7.31
2023-06-04T02:41:26.947Z,7.30
2023-06-04T02:43:54.773Z,7.30
2023-06-04T02:46:22.524Z,7.32
2023-06-04T02:48:50.249Z,7.34
2023-06-04T02:51:18.527Z,7.36
2023-06-04T02:53:47.309Z,7.40
2023-06-04T02:56:15.128Z,7.42
2023-06-04T02:58:59.404Z,7.44
2023-06-04T03:01:28.237Z,7.47
2023-06-04T03:03:56.222Z,7.47
2023-06-04T03:06:24.693Z,7.46
2023-06-04T03:08:53.809Z,7.47
2023-06-04T03:11:22.438Z,7.48
2023-06-04T03:13:50.365Z,7.51
2023-06-04T03:16:18.348Z,7.52
2023-06-04T03:18:46.140Z,7.51
2023-06-04T03:21:14.369Z,7.48
2023-06-04T03:23:42.313Z,7.52
2023-06-04T03:26:10.209Z,7.55
2023-06-04T03:28:37.990Z,7.59
2023-06-04T03:31:06.207Z,7.65
2023-06-04T03:33:34.230Z,7.69
2023-06-04T03:36:02.992Z,7.75
2023-06-04T03:38:30.754Z,7.82
2023-06-04T03:40:58.567Z,7.87
2023-06-04T03:43:26.322Z,7.93
2023-06-04T03:45:54.461Z,7.99
2023-06-04T03:48:22.416Z,8.05
2023-06-04T03:50:50.533Z,8.10
2023-06-04T03:53:18.372Z,8.16
2023-06-04T03:55:46.110Z,8.22
2023-06-04T03:58:15.768Z,8.31
2023-06-04T04:00:43.624Z,8.38
2023-06-04T04:03:11.478Z,8.47
2023-06-04T04:05:39.407Z,8.54
2023-06-04T04:08:07.197Z,8.61
2023-06-04T04:10:34.982Z,8.70
2023-06-04T04:13:02.773Z,8.78
2023-06-04T04:15:30.598Z,8.88
2023-06-04T04:17:58.472Z,8.93
2023-06-04T04:20:26.801Z,9.01
2023-06-04T04:22:54.584Z,9.10
2023-06-04T04:25:22.461Z,9.21
2023-06-04T04:27:50.265Z,9.30
2023-06-04T04:30:18.963Z,9.39
2023-06-04T04:32:50.201Z,9.49
2023-06-04T04:35:19.184Z,9.60
2023-06-04T04:37:47.031Z,9.71
2023-06-04T04:40:15.634Z,9.82
2023-06-04T04:42:43.526Z,9.92
2023-06-04T04:45:11.740Z,10.05
2023-06-04T04:47:39.658Z,10.27
2023-06-04T04:50:08.081Z,10.46
2023-06-04T04:52:35.981Z,10.63
2023-06-04T04:55:04.130Z,10.78
2023-06-04T04:57:31.914Z,10.95
2023-06-04T04:59:59.772Z,11.13
2023-06-04T05:02:27.625Z,11.35
2023-06-04T05:04:55.473Z,11.50
2023-06-04T05:07:24.625Z,11.61
2023-06-04T05:09:52.401Z,11.74
2023-06-04T05:12:20.114Z,11.86
2023-06-04T05:14:47.874Z,11.98
2023-06-04T05:17:17.572Z,12.11
2023-06-04T05:19:45.389Z,12.25
2023-06-04T05:22:13.814Z,12.52
2023-06-04T05:24:41.590Z,12.74
2023-06-04T05:27:10.590Z,12.93
2023-06-04T05:29:38.434Z,13.10
2023-06-04T05:32:06.511Z,13.24
2023-06-04T05:34:37.783Z,13.51
2023-06-04T05:37:12.262Z,13.81
2023-06-04T05:39:40.218Z,14.04
2023-06-04T05:42:08.007Z,14.25
2023-06-04T05:44:35.924Z,14.41
2023-06-04T05:47:03.795Z,14.67
2023-06-04T05:49:31.656Z,14.98
2023-06-04T05:51:59.383Z,15.11
2023-06-04T05:54:28.146Z,15.26
2023-06-04T05:56:56.233Z,15.59
2023-06-04T05:59:23.931Z,16.28
2023-06-04T06:01:51.750Z,17.17
2023-06-04T06:04:19.612Z,17.82
2023-06-04T06:06:49.655Z,18.41
2023-06-04T06:09:17.669Z,18.76
2023-06-04T06:11:45.397Z,18.74
2023-06-04T06:14:13.136Z,18.96
2023-06-04T06:16:41.817Z,19.38
2023-06-04T06:19:09.580Z,19.92
2023-06-04T06:21:37.387Z,20.32
2023-06-04T06:24:05.847Z,20.67
2023-06-04T06:26:33.639Z,20.76
2023-06-04T06:29:01.775Z,20.81
2023-06-04T06:31:29.950Z,20.99
2023-06-04T06:33:57.707Z,20.90
2023-06-04T06:36:25.438Z,21.35
2023-06-04T06:38:53.607Z,21.72
2023-06-04T06:41:21.975Z,21.73
2023-06-04T06:43:49.837Z,21.31
2023-06-04T06:46:17.678Z,21.44
2023-06-04T06:48:46.798Z,21.65
2023-06-04T06:51:14.928Z,22.20
2023-06-04T06:53:43.077Z,22.54
2023-06-04T06:56:11.093Z,22.61
2023-06-04T06:58:39.037Z,22.37
2023-06-04T07:01:08.290Z,22.34
2023-06-04T07:03:36.530Z,22.67
2023-06-04T07:06:05.882Z,23.15
2023-06-04T07:08:37.019Z,23.66
2023-06-04T07:18:15.311Z,24.26
2023-06-04T07:20:57.517Z,23.79
2023-06-04T07:23:41.988Z,23.61
2023-06-04T07:29:31.623Z,22.90
2023-06-04T07:32:43.092Z,23.22
2023-06-04T07:35:16.709Z,23.89
2023-06-04T07:37:50.161Z,24.44
2023-06-04T07:40:18.444Z,24.70
2023-06-04T07:42:47.872Z,24.88
2023-06-04T07:45:16.719Z,25.26
2023-06-04T07:47:44.695Z,25.62
2023-06-04T07:50:12.727Z,25.42
2023-06-04T07:52:40.627Z,25.39
2023-06-04T07:55:09.484Z,25.54
2023-06-04T07:57:37.421Z,25.86
2023-06-04T08:00:06.963Z,26.21
2023-06-04T08:02:35.122Z,26.35
2023-06-04T08:05:20.223Z,26.50
2023-06-04T08:07:48.724Z,26.85
2023-06-04T08:10:16.591Z,26.88
2023-06-04T08:12:44.534Z,26.75
2023-06-04T08:15:24.457Z,26.69
2023-06-04T08:17:52.417Z,26.90
2023-06-04T08:20:29.446Z,27.02
2023-06-04T08:22:57.402Z,27.07
2023-06-04T08:25:25.198Z,27.24
2023-06-04T08:27:53.148Z,27.58
2023-06-04T08:30:20.925Z,27.86
2023-06-04T08:32:49.698Z,27.23
2023-06-04T08:35:17.564Z,26.98
2023-06-04T08:37:45.364Z,27.00
2023-06-04T08:40:13.383Z,26.04
2023-06-04T08:42:48.014Z,25.48
2023-06-04T08:45:17.641Z,25.59
2023-06-04T08:47:49.766Z,25.82
2023-06-04T08:50:19.313Z,26.10
2023-06-04T08:52:48.270Z,26.64
2023-06-04T08:55:16.457Z,26.99
2023-06-04T08:57:44.677Z,26.66
2023-06-04T09:00:14.106Z,26.20
2023-06-04T09:02:42.200Z,26.11
2023-06-04T09:05:11.577Z,26.14
2023-06-04T09:07:42.181Z,26.06
2023-06-04T09:10:13.876Z,26.22
2023-06-04T09:12:45.306Z,26.52
2023-06-04T09:15:13.375Z,27.10
2023-06-04T09:17:47.685Z,27.79
2023-06-04T09:20:23.257Z,28.12
2023-06-04T09:22:54.973Z,27.91
2023-06-04T09:25:28.137Z,27.88
2023-06-04T09:28:07.953Z,28.15
2023-06-04T09:30:36.430Z,28.62
2023-06-04T09:33:09.034Z,29.39
2023-06-04T09:35:37.462Z,29.63
2023-06-04T09:38:06.388Z,29.42
2023-06-04T09:40:39.154Z,28.96
2023-06-04T09:43:07.319Z,28.65
2023-06-04T09:45:36.585Z,28.54
2023-06-04T09:48:09.397Z,27.94
2023-06-04T09:50:43.172Z,28.23
2023-06-04T09:53:23.878Z,28.81
2023-06-04T09:55:59.473Z,29.84
2023-06-04T09:58:28.593Z,30.69
2023-06-04T10:00:58.234Z,30.63
2023-06-04T10:07:09.433Z,28.72
2023-06-04T10:09:46.635Z,28.55
2023-06-04T10:12:21.608Z,28.94
2023-06-04T10:15:02.997Z,29.75
2023-06-04T10:17:32.176Z,30.11
2023-06-04T10:20:05.018Z,30.42
2023-06-04T10:26:52.546Z,31.09
2023-06-04T10:29:34.012Z,31.69
2023-06-04T10:32:25.338Z,32.29
2023-06-04T10:35:15.056Z,32.55
2023-06-04T10:38:03.406Z,32.95
2023-06-04T10:40:47.135Z,33.60
2023-06-04T10:43:20.206Z,33.58
2023-06-04T10:45:49.019Z,32.75
2023-06-04T10:50:54.005Z,32.65
2023-06-04T10:54:33.593Z,33.27
2023-06-04T10:57:12.470Z,33.35
2023-06-04T10:59:40.768Z,32.32
2023-06-04T11:02:10.022Z,30.41
2023-06-04T11:04:41.350Z,29.55
2023-06-04T11:07:10.307Z,29.87
2023-06-04T11:09:48.539Z,30.27
2023-06-04T11:12:16.710Z,30.67
2023-06-04T11:14:58.221Z,31.15
2023-06-04T11:17:26.133Z,31.88
2023-06-04T11:19:57.007Z,32.42
2023-06-04T11:22:25.210Z,32.87
2023-06-04T11:25:00.431Z,33.24
2023-06-04T11:30:03.814Z,33.75
2023-06-04T11:32:32.171Z,33.27
2023-06-04T11:35:07.652Z,32.67
2023-06-04T11:37:36.882Z,31.96
2023-06-04T11:40:18.875Z,32.64
2023-06-04T11:42:48.802Z,33.51
2023-06-04T11:45:19.081Z,33.91
2023-06-04T11:47:56.583Z,34.33
2023-06-04T11:50:28.345Z,33.79
2023-06-04T11:52:57.765Z,33.71
2023-06-04T11:55:27.194Z,34.20
2023-06-04T11:57:56.140Z,34.83
2023-06-04T12:00:24.240Z,35.52
2023-06-04T12:02:55.018Z,35.50
2023-06-04T12:05:33.243Z,33.60
2023-06-04T12:08:10.196Z,31.89
2023-06-04T12:10:43.068Z,32.35
2023-06-04T12:13:11.323Z,33.74
2023-06-04T12:15:39.317Z,35.11
2023-06-04T12:18:07.479Z,35.92
2023-06-04T12:20:40.698Z,36.01
2023-06-04T12:23:08.749Z,36.22
2023-06-04T12:25:38.893Z,36.43
2023-06-04T12:28:07.277Z,37.12
2023-06-04T12:32:40.370Z,38.01
2023-06-04T12:36:19.515Z,38.28
2023-06-04T12:50:26.219Z,36.53
2023-06-04T12:52:54.098Z,35.81
2023-06-04T12:55:22.063Z,35.03
2023-06-04T12:57:50.008Z,34.53
2023-06-04T13:00:18.008Z,34.11
2023-06-04T13:02:46.267Z,33.43
2023-06-04T13:06:10.989Z,33.16
2023-06-04T13:34:08.980Z,29.94
2023-06-04T13:37:06.915Z,29.88
2023-06-04T13:50:59.251Z,32.88
2023-06-04T13:53:45.914Z,33.09
2023-06-04T13:56:14.170Z,33.08
2023-06-04T13:58:41.944Z,33.41
2023-06-04T14:01:10.010Z,33.29
2023-06-04T14:03:38.523Z,33.17
2023-06-04T14:06:06.721Z,33.17
2023-06-04T14:08:34.686Z,32.85
2023-06-04T14:17:52.528Z,31.50
2023-06-04T14:31:57.118Z,32.93
2023-06-04T14:34:25.608Z,33.74
2023-06-04T14:36:53.804Z,34.44
2023-06-04T14:39:29.065Z,34.59
2023-06-04T14:41:59.695Z,34.63
2023-06-04T14:44:27.453Z,34.78
2023-06-04T14:46:55.337Z,34.98
2023-06-04T14:49:23.730Z,35.43
2023-06-04T14:51:51.590Z,35.87
2023-06-04T14:56:38.023Z,36.67
2023-06-04T14:59:56.627Z,36.82
2023-06-04T15:04:07.134Z,37.15
2023-06-04T15:18:12.691Z,34.39
2023-06-04T15:20:58.491Z,34.45
2023-06-04T15:23:26.555Z,34.96
2023-06-04T15:25:54.737Z,34.98
2023-06-04T15:28:22.718Z,34.31
2023-06-04T15:30:50.692Z,34.38
2023-06-04T15:33:18.567Z,35.01
2023-06-04T15:35:46.351Z,35.66
2023-06-04T15:38:14.152Z,36.12
2023-06-04T15:40:42.249Z,36.45
2023-06-04T15:43:10.276Z,36.23
2023-06-04T15:47:26.200Z,34.28
2023-06-04T15:49:54.496Z,33.35
2023-06-04T15:52:48.273Z,32.52
2023-06-04T15:55:17.233Z,31.92
2023-06-04T15:57:45.087Z,31.31
2023-06-04T16:00:13.811Z,30.81
2023-06-04T16:03:53.686Z,30.23
2023-06-04T16:08:03.768Z,29.70
2023-06-04T16:11:17.375Z,29.30
2023-06-04T16:15:09.333Z,28.79
2023-06-04T16:28:39.183Z,27.16
2023-06-04T16:32:24.023Z,26.97
2023-06-04T16:36:25.653Z,26.62
2023-06-04T16:39:45.934Z,26.36
2023-06-04T16:53:59.555Z,25.55
2023-06-04T16:56:28.290Z,25.50
2023-06-04T16:58:57.241Z,25.35
2023-06-04T17:01:26.028Z,25.22
2023-06-04T17:03:55.134Z,25.08
2023-06-04T17:06:23.494Z,24.96
2023-06-04T17:08:52.032Z,24.80
2023-06-04T17:11:20.922Z,24.68
2023-06-04T17:13:50.544Z,24.61
2023-06-04T17:16:19.038Z,24.52
2023-06-04T17:18:47.796Z,24.43
2023-06-04T17:21:18.385Z,24.36
2023-06-04T17:23:49.498Z,24.25
2023-06-04T17:26:18.171Z,24.13
2023-06-04T17:28:46.494Z,23.98
2023-06-04T17:31:19.334Z,23.87
2023-06-04T17:33:47.867Z,23.74
2023-06-04T17:36:16.528Z,23.60
2023-06-04T17:38:45.135Z,23.49
2023-06-04T17:41:13.603Z,23.33
2023-06-04T17:43:44.904Z,23.21
2023-06-04T17:46:13.642Z,23.13
2023-06-04T17:48:42.684Z,23.06
2023-06-04T17:51:11.716Z,22.95
2023-06-04T17:53:40.971Z,22.86
2023-06-04T17:56:10.818Z,22.79
2023-06-04T17:58:40.070Z,22.69
2023-06-04T18:01:08.744Z,22.59
2023-06-04T18:03:36.830Z,22.46
2023-06-04T18:06:05.361Z,22.35
2023-06-04T18:08:33.502Z,22.25
2023-06-04T18:11:01.693Z,22.21
2023-06-04T18:13:29.832Z,22.12
2023-06-04T18:15:57.748Z,21.99
2023-06-04T18:18:26.869Z,21.85
2023-06-04T18:20:57.209Z,21.75
2023-06-04T18:23:25.436Z,21.65
2023-06-04T18:25:53.727Z,21.47
2023-06-04T18:28:21.755Z,21.29
2023-06-04T18:30:49.676Z,21.14
2023-06-04T18:33:17.948Z,21.03
2023-06-04T18:35:46.064Z,20.93
2023-06-04T18:38:15.947Z,20.86
2023-06-04T18:40:43.722Z,20.79
2023-06-04T18:43:12.153Z,20.72
2023-06-04T18:45:40.429Z,20.56
2023-06-04T18:48:08.353Z,20.39
2023-06-04T18:50:36.403Z,20.19
2023-06-04T18:53:04.473Z,20.01
2023-06-04T18:55:32.455Z,19.82
2023-06-04T18:58:00.521Z,19.65
2023-06-04T19:00:29.971Z,19.50
2023-06-04T19:03:00.752Z,19.35
2023-06-04T19:05:31.172Z,19.22
2023-06-04T19:08:01.334Z,19.07
2023-06-04T19:10:29.612Z,18.95
2023-06-04T19:12:57.817Z,18.77
2023-06-04T19:15:26.091Z,18.61
2023-06-04T19:17:54.312Z,18.46
2023-06-04T19:20:22.572Z,18.29
2023-06-04T19:22:50.728Z,18.10
2023-06-04T19:25:18.964Z,17.93
2023-06-04T19:27:46.827Z,17.78
2023-06-04T19:30:16.151Z,17.68
2023-06-04T19:32:45.147Z,17.62
2023-06-04T19:35:13.528Z,17.56
2023-06-04T19:37:42.115Z,17.46
2023-06-04T19:40:10.763Z,17.40
2023-06-04T19:42:39.213Z,17.33
2023-06-04T19:45:08.544Z,17.23
2023-06-04T19:47:38.550Z,17.14
2023-06-04T19:50:07.832Z,17.05
2023-06-04T19:52:35.758Z,16.96
2023-06-04T19:55:05.469Z,16.85
2023-06-04T19:57:33.290Z,16.75
2023-06-04T20:00:01.393Z,16.67
2023-06-04T20:02:29.754Z,16.62
2023-06-04T20:04:57.926Z,16.56
2023-06-04T20:07:27.644Z,16.51
2023-06-04T20:09:57.577Z,16.46
2023-06-04T20:12:25.734Z,16.37
2023-06-04T20:14:53.697Z,16.27
2023-06-04T20:17:21.760Z,16.14
2023-06-04T20:19:49.757Z,16.08
2023-06-04T20:22:17.719Z,16.00
2023-06-04T20:24:46.525Z,15.94
2023-06-04T20:27:17.883Z,15.82
2023-06-04T20:29:45.905Z,15.71
2023-06-04T20:32:13.677Z,15.59
2023-06-04T20:34:41.951Z,15.49
2023-06-04T20:37:11.627Z,15.40
2023-06-04T20:39:40.673Z,15.32
2023-06-04T20:42:08.606Z,15.26
2023-06-04T20:44:36.705Z,15.20
2023-06-04T20:47:06.447Z,15.11
2023-06-04T20:49:34.241Z,15.03
2023-06-04T20:52:02.195Z,14.96
2023-06-04T20:54:30.240Z,14.87
2023-06-04T20:56:58.151Z,14.80
2023-06-04T20:59:25.973Z,14.75
2023-06-04T21:01:54.036Z,14.72
2023-06-04T21:04:22.355Z,14.67
2023-06-04T21:06:50.373Z,14.61
2023-06-04T21:09:18.946Z,14.55
2023-06-04T21:11:46.787Z,14.48
2023-06-04T21:14:14.809Z,14.43
2023-06-04T21:16:43.099Z,14.39
2023-06-04T21:19:20.405Z,14.34
2023-06-04T21:21:48.144Z,14.29
2023-06-04T21:24:16.038Z,14.26
2023-06-04T21:26:53.178Z,14.22
2023-06-04T21:29:23.877Z,14.12
2023-06-04T21:31:51.979Z,14.04
2023-06-04T21:34:23.027Z,14.00
2023-06-04T21:37:16.093Z,13.96
2023-06-04T21:39:43.971Z,13.91
2023-06-04T21:42:11.682Z,13.86
2023-06-04T21:44:39.414Z,13.85
2023-06-04T21:47:07.746Z,13.79
2023-06-04T21:49:37.831Z,13.64
2023-06-04T21:52:13.787Z,13.54
2023-06-04T21:54:49.261Z,13.48
2023-06-04T21:57:17.056Z,13.46
2023-06-04T21:59:44.956Z,13.46
2023-06-04T22:02:13.271Z,13.47
2023-06-04T22:04:41.140Z,13.48
2023-06-04T22:07:09.224Z,13.48
2023-06-04T22:09:37.072Z,13.48
2023-06-04T22:12:05.040Z,13.46
2023-06-04T22:14:33.483Z,13.40
2023-06-04T22:17:01.385Z,13.33
2023-06-04T22:19:29.357Z,13.27
2023-06-04T22:21:57.250Z,13.18
2023-06-04T22:24:25.219Z,13.11
2023-06-04T22:26:52.975Z,13.04
2023-06-04T22:29:21.228Z,12.98
2023-06-04T22:31:49.212Z,12.96
2023-06-04T22:34:17.244Z,12.89
2023-06-04T22:36:45.767Z,12.83
2023-06-04T22:39:13.634Z,12.80
2023-06-04T22:41:41.367Z,12.76
2023-06-04T22:44:09.165Z,12.73
2023-06-04T22:46:37.164Z,12.69
2023-06-04T22:49:04.984Z,12.63
2023-06-04T22:51:32.983Z,12.57
2023-06-04T22:54:00.871Z,12.51
2023-06-04T22:56:41.975Z,12.48
2023-06-04T22:59:11.610Z,12.45
2023-06-04T23:01:41.262Z,12.39
2023-06-04T23:04:09.305Z,12.35
2023-06-04T23:06:37.799Z,12.30
2023-06-04T23:09:05.866Z,12.27
2023-06-04T23:11:33.668Z,12.23
2023-06-04T23:14:01.560Z,12.21
2023-06-04T23:16:29.403Z,12.17
2023-06-04T23:18:57.308Z,12.15
2023-06-04T23:21:25.492Z,12.08
2023-06-04T23:23:53.405Z,12.00
2023-06-04T23:26:22.321Z,11.94
2023-06-04T23:28:50.077Z,11.85
2023-06-04T23:31:17.900Z,11.78
2023-06-04T23:33:45.630Z,11.74
2023-06-04T23:36:13.545Z,11.75
2023-06-04T23:38:41.288Z,11.73
2023-06-04T23:41:09.318Z,11.71
2023-06-04T23:43:37.235Z,11.70
2023-06-04T23:46:05.619Z,11.66
2023-06-04T23:48:33.744Z,11.63
2023-06-04T23:51:01.512Z,11.57
2023-06-04T23:53:29.324Z,11.51
2023-06-04T23:55:57.127Z,11.49
2023-06-04T23:58:24.876Z,11.45
